createdAt,value
2019-04-26T00:00:29.787Z,57.16
2019-04-26T00:03:02.486Z,57.37
2019-04-26T00:05:35.518Z,57.14
2019-04-26T00:08:06.042Z,57.93
2019-04-26T00:10:48.041Z,57.92
2019-04-26T00:13:29.915Z,57.59
2019-04-26T00:16:02.830Z,57.47
2019-04-26T00:18:33.642Z,56.23
2019-04-26T00:21:04.447Z,56.05
2019-04-26T00:23:35.250Z,54.69
2019-04-26T00:26:06.353Z,53.45
2019-04-26T00:28:37.168Z,55.51
2019-04-26T00:31:07.963Z,57.21
2019-04-26T00:33:38.791Z,56.17
2019-04-26T00:36:09.608Z,55.79
2019-04-26T00:38:40.436Z,56.60
2019-04-26T00:41:12.658Z,56.79
2019-04-26T00:43:43.677Z,57.10
2019-04-26T00:46:15.184Z,58.00
2019-04-26T00:48:46.305Z,57.98
2019-04-26T00:51:17.293Z,58.27
2019-04-26T00:53:49.127Z,59.02
2019-04-26T00:56:20.169Z,58.98
2019-04-26T00:58:51.210Z,59.35
2019-04-26T01:01:23.594Z,59.50
2019-04-26T01:03:54.391Z,60.05
2019-04-26T01:06:27.072Z,56.34
2019-04-26T01:08:57.851Z,55.48
2019-04-26T01:11:28.617Z,57.75
2019-04-26T01:13:59.388Z,57.44
2019-04-26T01:16:30.159Z,57.78
2019-04-26T01:19:00.924Z,57.67
2019-04-26T01:21:41.564Z,56.32
2019-04-26T01:24:12.981Z,56.58
2019-04-26T01:26:45.152Z,56.82
2019-04-26T01:29:18.607Z,56.88
2019-04-26T01:31:59.775Z,56.65
2019-04-26T01:37:21.038Z,54.82
2019-04-26T01:39:55.623Z,55.58
2019-04-26T01:42:45.311Z,53.75
2019-04-26T01:45:18.109Z,53.93
2019-04-26T01:47:52.183Z,51.42
2019-04-26T01:50:23.973Z,53.29
2019-04-26T01:52:55.651Z,53.81
2019-04-26T01:55:27.231Z,52.83
2019-04-26T01:57:59.912Z,53.83
2019-04-26T02:00:39.430Z,52.78
2019-04-26T02:03:15.245Z,54.20
2019-04-26T02:05:46.144Z,54.61
2019-04-26T02:08:17.102Z,54.61
2019-04-26T02:10:48.037Z,55.08
2019-04-26T02:13:19.645Z,56.04
2019-04-26T02:15:50.461Z,56.38
2019-04-26T02:18:21.481Z,56.77
2019-04-26T02:21:04.390Z,57.70
2019-04-26T02:23:42.907Z,56.90
2019-04-26T02:26:33.191Z,58.02
2019-04-26T02:29:10.786Z,56.48
2019-04-26T02:31:43.397Z,57.15
2019-04-26T02:34:14.522Z,58.55
2019-04-26T02:36:57.042Z,59.56
2019-04-26T02:39:21.287Z,59.01
2019-04-26T02:41:55.869Z,59.14
2019-04-26T02:44:31.329Z,59.62
2019-04-26T02:47:39.185Z,59.43
2019-04-26T02:50:17.666Z,59.93
2019-04-26T02:52:54.857Z,60.24
2019-04-26T02:55:36.866Z,60.87
2019-04-26T02:58:05.433Z,58.64
2019-04-26T03:00:37.749Z,58.38
2019-04-26T03:03:08.980Z,58.21
2019-04-26T03:05:41.075Z,56.55
2019-04-26T03:08:14.408Z,55.58
2019-04-26T03:10:48.220Z,56.52
2019-04-26T03:13:26.724Z,56.40
2019-04-26T03:16:16.384Z,57.75
2019-04-26T03:18:55.862Z,57.54
2019-04-26T03:21:37.812Z,57.52
2019-04-26T03:24:24.932Z,58.92
2019-04-26T03:27:17.921Z,57.43
2019-04-26T03:29:52.529Z,57.15
2019-04-26T03:32:39.122Z,57.11
2019-04-26T03:35:23.401Z,57.48
2019-04-26T03:38:21.372Z,57.96
2019-04-26T03:41:09.710Z,58.61
2019-04-26T03:43:44.670Z,59.84
2019-04-26T03:46:31.405Z,60.59
2019-04-26T03:49:18.054Z,59.91
2019-04-26T03:51:55.605Z,60.34
2019-04-26T03:54:29.478Z,60.69
2019-04-26T03:57:15.005Z,59.93
2019-04-26T03:59:51.480Z,61.18
2019-04-26T04:02:27.959Z,60.97
2019-04-26T04:05:06.958Z,61.60
2019-04-26T04:07:43.613Z,60.74
2019-04-26T04:10:26.694Z,61.15
2019-04-26T04:13:18.108Z,61.21
2019-04-26T04:15:50.777Z,60.92
2019-04-26T04:18:23.655Z,61.61
2019-04-26T04:21:14.861Z,62.43
2019-04-26T04:24:09.175Z,62.22
2019-04-26T04:27:13.297Z,63.95
2019-04-26T04:29:52.555Z,63.86
2019-04-26T04:32:46.399Z,62.73
2019-04-26T04:35:19.960Z,62.00
2019-04-26T04:38:08.056Z,62.02
2019-04-26T04:41:08.539Z,62.31
2019-04-26T04:43:51.197Z,62.68
2019-04-26T04:46:47.634Z,62.89
2019-04-26T04:49:33.129Z,63.07
2019-04-26T04:52:13.570Z,62.61
2019-04-26T04:55:03.284Z,63.25
2019-04-26T04:57:36.221Z,62.91
2019-04-26T05:00:18.283Z,64.42
2019-04-26T05:03:27.452Z,64.46
2019-04-26T05:06:07.798Z,64.19
2019-04-26T05:08:50.963Z,63.66
2019-04-26T05:11:30.849Z,63.67
2019-04-26T05:14:28.296Z,64.07
2019-04-26T05:17:14.704Z,63.37
2019-04-26T05:20:08.723Z,62.36
2019-04-26T05:22:56.116Z,62.97
2019-04-26T05:25:53.536Z,62.78
2019-04-26T05:28:46.185Z,62.72
2019-04-26T05:31:35.737Z,61.33
2019-04-26T05:34:15.217Z,60.72
2019-04-26T05:37:04.959Z,60.25
2019-04-26T05:39:42.276Z,60.27
2019-04-26T05:42:44.029Z,60.57
2019-04-26T05:45:47.309Z,59.06
2019-04-26T05:48:39.155Z,59.42
2019-04-26T05:51:51.953Z,60.38
2019-04-26T05:54:49.598Z,60.58
2019-04-26T05:57:51.501Z,60.16
2019-04-26T06:00:45.791Z,60.92
2019-04-26T06:03:41.644Z,59.63
2019-04-26T06:06:32.465Z,58.43
2019-04-26T06:09:08.437Z,59.72
2019-04-26T06:11:54.628Z,59.60
2019-04-26T06:14:46.554Z,58.82
2019-04-26T06:17:26.088Z,58.34
2019-04-26T06:20:27.654Z,59.30
2019-04-26T06:23:20.583Z,57.97
2019-04-26T06:26:29.010Z,58.93
2019-04-26T06:29:06.656Z,59.29
2019-04-26T06:31:40.846Z,59.74
2019-04-26T06:34:18.447Z,59.38
2019-04-26T06:37:15.863Z,58.17
2019-04-26T06:39:54.669Z,57.79
2019-04-26T06:42:56.281Z,56.73
2019-04-26T06:45:56.846Z,57.77
2019-04-26T06:48:36.586Z,58.60
2019-04-26T06:51:24.050Z,57.37
2019-04-26T06:53:59.356Z,56.43
2019-04-26T06:56:47.938Z,56.73
2019-04-26T06:59:43.511Z,55.93
2019-04-26T07:02:30.161Z,55.50
2019-04-26T07:05:16.632Z,54.68
2019-04-26T07:07:57.039Z,56.85
2019-04-26T07:10:44.349Z,55.27
2019-04-26T07:13:42.078Z,55.16
2019-04-26T07:16:23.326Z,54.85
2019-04-26T07:19:50.313Z,55.73
2019-04-26T07:22:42.294Z,54.89
2019-04-26T07:25:47.768Z,54.41
2019-04-26T07:28:48.143Z,51.85
2019-04-26T07:31:31.507Z,51.23
2019-04-26T07:34:13.600Z,51.84
2019-04-26T07:37:22.165Z,53.17
2019-04-26T07:40:32.239Z,52.36
2019-04-26T07:43:15.009Z,52.82
2019-04-26T07:46:08.050Z,52.87
2019-04-26T07:49:10.247Z,52.57
2019-04-26T07:52:04.111Z,53.64
2019-04-26T07:55:08.684Z,52.82
2019-04-26T07:58:06.942Z,52.31
2019-04-26T08:00:47.427Z,52.96
2019-04-26T08:03:35.271Z,52.35
2019-04-26T08:06:21.604Z,50.98
2019-04-26T08:08:56.464Z,50.98
2019-04-26T08:11:32.515Z,52.41
2019-04-26T08:14:14.784Z,51.32
2019-04-26T08:17:14.861Z,50.26
2019-04-26T08:20:06.689Z,50.26
2019-04-26T08:22:38.119Z,49.96
2019-04-26T08:25:12.475Z,49.96
2019-04-26T08:27:44.803Z,48.99
2019-04-26T08:30:19.081Z,48.99
2019-04-26T08:32:52.282Z,49.30
2019-04-26T08:35:26.903Z,49.46
2019-04-26T08:38:01.405Z,49.12
2019-04-26T08:40:32.890Z,49.12
2019-04-26T08:43:09.529Z,48.68
2019-04-26T08:46:01.971Z,49.04
2019-04-26T08:48:37.484Z,49.12
2019-04-26T08:51:15.362Z,47.89
2019-04-26T08:53:47.085Z,48.41
2019-04-26T08:56:21.683Z,47.45
2019-04-26T08:58:56.474Z,48.45
2019-04-26T09:01:31.076Z,48.72
2019-04-26T09:04:08.068Z,48.72
2019-04-26T09:06:48.075Z,49.35
2019-04-26T09:09:22.671Z,46.48
2019-04-26T09:11:59.949Z,46.84
2019-04-26T09:14:29.259Z,48.96
2019-04-26T09:17:00.036Z,47.31
2019-04-26T09:19:32.160Z,47.16
2019-04-26T09:22:13.244Z,47.70
2019-04-26T09:24:55.125Z,47.70
2019-04-26T09:27:32.423Z,46.81
2019-04-26T09:30:09.398Z,47.43
2019-04-26T09:32:51.204Z,47.43
2019-04-26T09:35:21.974Z,47.30
2019-04-26T09:37:52.751Z,48.23
2019-04-26T09:40:23.726Z,47.85
2019-04-26T09:42:56.392Z,46.79
2019-04-26T09:45:29.182Z,47.46
2019-04-26T09:48:01.856Z,45.74
2019-04-26T09:50:34.545Z,46.56
2019-04-26T09:53:05.420Z,47.78
2019-04-26T09:55:36.206Z,46.31
2019-04-26T09:58:08.597Z,46.14
2019-04-26T10:00:39.678Z,45.63
2019-04-26T10:03:10.794Z,45.38
2019-04-26T10:05:41.659Z,48.04
2019-04-26T10:08:14.198Z,48.04
2019-04-26T10:10:45.230Z,48.42
2019-04-26T10:13:23.773Z,47.32
2019-04-26T10:16:02.529Z,47.67
2019-04-26T10:18:32.186Z,48.34
2019-04-26T10:21:03.352Z,47.34
2019-04-26T10:23:34.144Z,47.80
2019-04-26T10:26:06.420Z,48.00
2019-04-26T10:28:37.188Z,46.84
2019-04-26T10:31:07.973Z,44.59
2019-04-26T10:33:38.737Z,44.64
2019-04-26T10:36:09.526Z,44.26
2019-04-26T10:38:40.291Z,46.80
2019-04-26T10:41:11.080Z,48.13
2019-04-26T10:43:41.857Z,47.21
2019-04-26T10:46:12.634Z,47.23
2019-04-26T10:48:45.607Z,47.52
2019-04-26T10:51:18.009Z,48.60
2019-04-26T10:53:53.941Z,47.49
2019-04-26T10:56:38.778Z,47.49
2019-04-26T10:59:17.522Z,46.12
2019-04-26T11:01:48.315Z,47.86
2019-04-26T11:04:19.078Z,47.53
2019-04-26T11:06:49.929Z,47.89
2019-04-26T11:09:20.695Z,47.77
2019-04-26T11:11:51.482Z,47.96
2019-04-26T11:14:24.160Z,47.76
2019-04-26T11:16:55.242Z,50.00
2019-04-26T11:19:25.998Z,50.00
2019-04-26T11:21:56.795Z,50.63
2019-04-26T11:24:27.560Z,51.55
2019-04-26T11:26:58.340Z,50.59
2019-04-26T11:29:30.186Z,49.50
2019-04-26T11:32:02.654Z,49.89
2019-04-26T11:34:33.765Z,49.89
2019-04-26T11:37:04.557Z,50.74
2019-04-26T11:39:36.624Z,49.35
2019-04-26T11:42:11.677Z,50.23
2019-04-26T11:44:40.691Z,50.42
2019-04-26T11:47:11.463Z,50.84
2019-04-26T11:49:43.016Z,51.24
2019-04-26T11:52:13.819Z,50.88
2019-04-26T11:54:44.589Z,50.88
2019-04-26T11:57:15.388Z,51.10
2019-04-26T11:59:46.359Z,52.07
2019-04-26T12:02:17.308Z,52.28
2019-04-26T12:04:55.776Z,52.99
2019-04-26T12:07:28.464Z,51.11
2019-04-26T12:10:01.115Z,52.35
2019-04-26T12:12:31.916Z,52.41
2019-04-26T12:15:08.464Z,53.20
2019-04-26T12:17:37.064Z,52.68
2019-04-26T12:20:07.955Z,52.28
2019-04-26T12:22:39.447Z,52.27
2019-04-26T12:25:11.596Z,51.61
2019-04-26T12:27:42.478Z,51.74
2019-04-26T12:30:14.149Z,52.01
2019-04-26T12:32:45.432Z,51.72
2019-04-26T12:35:16.196Z,52.00
2019-04-26T12:37:50.719Z,53.45
2019-04-26T12:40:19.969Z,54.09
2019-04-26T12:42:50.859Z,55.07
2019-04-26T12:45:32.390Z,54.06
2019-04-26T12:48:08.177Z,54.29
2019-04-26T12:50:38.992Z,54.93
2019-04-26T12:53:09.773Z,56.09
2019-04-26T12:55:40.540Z,56.33
2019-04-26T12:58:15.278Z,56.52
2019-04-26T13:00:53.776Z,56.52
2019-04-26T13:03:20.466Z,56.03
2019-04-26T13:05:57.488Z,55.05
2019-04-26T13:08:22.168Z,55.93
2019-04-26T13:11:07.406Z,56.43
2019-04-26T13:13:51.052Z,55.51
2019-04-26T13:16:26.230Z,55.63
2019-04-26T13:18:56.884Z,55.22
2019-04-26T13:21:27.705Z,53.91
2019-04-26T13:24:00.216Z,54.86
2019-04-26T13:26:34.668Z,56.12
2019-04-26T13:29:03.804Z,55.70
2019-04-26T13:31:34.588Z,55.92
2019-04-26T13:34:05.370Z,56.98
2019-04-26T13:36:36.139Z,56.36
2019-04-26T13:39:08.826Z,56.34
2019-04-26T13:41:40.262Z,55.94
2019-04-26T13:44:11.080Z,55.48
2019-04-26T13:46:55.983Z,55.09
2019-04-26T13:49:28.662Z,56.70
2019-04-26T13:51:59.442Z,56.69
2019-04-26T13:54:30.228Z,56.14
2019-04-26T13:57:00.990Z,57.41
2019-04-26T13:59:32.799Z,57.61
2019-04-26T14:02:11.470Z,57.35
2019-04-26T14:04:37.172Z,57.65
2019-04-26T14:07:09.032Z,57.15
2019-04-26T14:09:39.830Z,56.46
2019-04-26T14:12:18.357Z,57.97
2019-04-26T14:14:43.295Z,59.07
2019-04-26T14:17:14.075Z,59.12
2019-04-26T14:19:45.377Z,58.15
2019-04-26T14:22:19.455Z,58.08
2019-04-26T14:24:57.062Z,59.18
2019-04-26T14:27:29.263Z,59.53
2019-04-26T14:30:02.647Z,61.79
2019-04-26T14:32:32.712Z,62.23
2019-04-26T14:35:04.583Z,61.67
2019-04-26T14:37:35.347Z,59.35
2019-04-26T14:40:16.767Z,59.96
2019-04-26T14:42:46.115Z,60.96
2019-04-26T14:45:22.728Z,60.37
2019-04-26T14:47:47.585Z,59.69
2019-04-26T14:50:17.249Z,61.41
2019-04-26T14:52:48.021Z,60.34
2019-04-26T14:55:21.187Z,61.59
2019-04-26T14:57:54.024Z,62.45
2019-04-26T15:00:26.061Z,63.71
2019-04-26T15:03:03.176Z,63.21
2019-04-26T15:05:48.078Z,64.21
2019-04-26T15:08:18.855Z,62.63
2019-04-26T15:10:57.666Z,63.89
2019-04-26T15:13:23.602Z,63.83
2019-04-26T15:15:56.617Z,62.75
2019-04-26T15:18:29.231Z,64.19
2019-04-26T15:21:00.778Z,64.22
2019-04-26T15:23:32.980Z,63.45
2019-04-26T15:26:03.945Z,64.05
2019-04-26T15:28:34.718Z,64.58
2019-04-26T15:31:05.493Z,63.84
2019-04-26T15:33:36.315Z,65.54
2019-04-26T15:36:12.793Z,64.17
2019-04-26T15:38:44.823Z,64.74
2019-04-26T15:41:33.275Z,62.77
2019-04-26T15:44:13.626Z,64.09
2019-04-26T15:46:58.755Z,66.58
2019-04-26T15:49:37.144Z,68.24
2019-04-26T15:52:07.927Z,67.17
2019-04-26T15:54:38.704Z,66.80
2019-04-26T15:57:09.698Z,66.89
2019-04-26T15:59:40.446Z,66.81
2019-04-26T16:02:12.445Z,66.47
2019-04-26T16:04:43.422Z,67.44
2019-04-26T16:07:23.288Z,66.64
2019-04-26T16:09:49.250Z,66.75
2019-04-26T16:12:20.326Z,66.54
2019-04-26T16:14:52.551Z,67.79
2019-04-26T16:17:23.330Z,67.04
2019-04-26T16:19:56.198Z,69.17
2019-04-26T16:22:30.075Z,69.73
2019-04-26T16:25:03.992Z,70.51
2019-04-26T16:27:34.555Z,70.11
2019-04-26T16:30:07.812Z,71.59
2019-04-26T16:32:47.063Z,70.34
2019-04-26T16:35:18.162Z,68.48
2019-04-26T16:37:48.923Z,71.28
2019-04-26T16:40:19.796Z,72.39
2019-04-26T16:42:56.901Z,70.99
2019-04-26T16:45:23.257Z,74.52
2019-04-26T16:47:54.054Z,74.85
2019-04-26T16:50:31.469Z,74.67
2019-04-26T16:52:57.741Z,75.04
2019-04-26T16:55:28.492Z,76.26
2019-04-26T16:57:59.276Z,75.19
2019-04-26T17:00:48.222Z,75.41
2019-04-26T17:03:07.598Z,75.29
2019-04-26T17:05:47.735Z,76.83
2019-04-26T17:08:10.454Z,78.40
2019-04-26T17:10:42.064Z,77.47
2019-04-26T17:13:13.284Z,74.82
2019-04-26T17:15:44.110Z,75.06
2019-04-26T17:18:14.897Z,77.66
2019-04-26T17:20:48.157Z,76.89
2019-04-26T17:23:24.037Z,78.85
2019-04-26T17:26:13.252Z,78.77
2019-04-26T17:28:44.116Z,78.72
2019-04-26T17:31:14.889Z,76.92
2019-04-26T17:33:45.667Z,76.82
2019-04-26T17:36:17.307Z,76.09
2019-04-26T17:38:48.126Z,75.41
2019-04-26T17:41:18.887Z,77.19
2019-04-26T17:43:53.300Z,77.08
2019-04-26T17:46:22.449Z,77.40
2019-04-26T17:48:53.258Z,78.09
2019-04-26T17:51:23.995Z,79.47
2019-04-26T17:54:20.342Z,76.50
2019-04-26T17:56:31.466Z,74.99
2019-04-26T17:59:04.555Z,75.81
2019-04-26T18:01:44.406Z,77.37
2019-04-26T18:04:05.658Z,76.61
2019-04-26T18:06:36.399Z,75.55
2019-04-26T18:09:07.205Z,75.91
2019-04-26T18:11:37.977Z,75.88
2019-04-26T18:14:20.734Z,77.22
2019-04-26T18:16:43.342Z,76.69
2019-04-26T18:19:18.565Z,76.76
2019-04-26T18:21:56.111Z,78.43
2019-04-26T18:24:27.532Z,77.24
2019-04-26T18:26:59.138Z,76.84
2019-04-26T18:29:30.409Z,76.72
2019-04-26T18:32:03.615Z,77.32
2019-04-26T18:34:36.654Z,75.82
2019-04-26T18:37:07.396Z,76.22
2019-04-26T18:39:38.331Z,76.80
2019-04-26T18:42:09.112Z,76.66
2019-04-26T18:44:47.565Z,77.11
2019-04-26T18:47:20.506Z,77.48
2019-04-26T18:49:53.618Z,77.38
2019-04-26T18:52:23.327Z,78.57
2019-04-26T18:55:05.917Z,78.00
2019-04-26T18:57:36.659Z,78.35
2019-04-26T19:00:09.548Z,77.51
2019-04-26T19:02:40.331Z,77.18
2019-04-26T19:05:14.145Z,76.38
2019-04-26T19:07:46.244Z,76.52
2019-04-26T19:10:16.664Z,77.43
2019-04-26T19:12:48.532Z,76.97
2019-04-26T19:15:24.272Z,75.70
2019-04-26T19:18:05.841Z,75.50
2019-04-26T19:20:44.567Z,79.96
2019-04-26T19:23:15.350Z,78.09
2019-04-26T19:25:46.115Z,77.76
2019-04-26T19:28:16.885Z,77.47
2019-04-26T19:30:50.995Z,78.27
2019-04-26T19:33:21.586Z,78.79
2019-04-26T19:35:58.551Z,79.67
2019-04-26T19:38:29.320Z,77.68
2019-04-26T19:41:00.100Z,76.47
2019-04-26T19:43:35.009Z,77.78
2019-04-26T19:46:05.470Z,77.72
2019-04-26T19:48:41.818Z,77.21
2019-04-26T19:51:27.064Z,79.89
2019-04-26T19:54:02.103Z,77.69
2019-04-26T19:56:34.869Z,76.56
2019-04-26T19:59:05.641Z,77.75
2019-04-26T20:01:36.429Z,78.46
2019-04-26T20:04:07.196Z,79.22
2019-04-26T20:06:37.973Z,80.00
2019-04-26T20:09:09.740Z,80.56
2019-04-26T20:11:42.136Z,78.78
2019-04-26T20:14:12.894Z,76.96
2019-04-26T20:16:43.684Z,78.91
2019-04-26T20:19:17.683Z,78.45
2019-04-26T20:21:49.785Z,78.67
2019-04-26T20:24:19.812Z,74.98
2019-04-26T20:26:52.300Z,75.99
2019-04-26T20:29:23.285Z,77.27
2019-04-26T20:31:59.219Z,79.11
2019-04-26T20:34:29.992Z,78.58
2019-04-26T20:37:01.491Z,79.95
2019-04-26T20:39:33.811Z,80.98
2019-04-26T20:42:04.634Z,80.35
2019-04-26T20:44:49.002Z,80.14
2019-04-26T20:47:14.311Z,77.41
2019-04-26T20:49:48.182Z,77.09
2019-04-26T20:52:16.492Z,78.70
2019-04-26T20:54:51.113Z,78.46
2019-04-26T20:57:21.919Z,77.41
2019-04-26T21:00:01.539Z,77.13
2019-04-26T21:02:25.464Z,78.35
2019-04-26T21:04:56.236Z,77.23
2019-04-26T21:07:27.021Z,78.50
2019-04-26T21:09:57.785Z,78.63
2019-04-26T21:12:28.581Z,78.79
2019-04-26T21:14:59.347Z,80.67
2019-04-26T21:17:30.116Z,79.37
2019-04-26T21:20:02.165Z,80.02
2019-04-26T21:22:33.172Z,80.05
2019-04-26T21:25:07.745Z,79.35
2019-04-26T21:27:49.340Z,79.53
2019-04-26T21:30:22.021Z,76.78
2019-04-26T21:32:56.061Z,78.02
2019-04-26T21:35:35.714Z,76.53
2019-04-26T21:38:25.611Z,78.41
2019-04-26T21:41:04.342Z,78.35
2019-04-26T21:43:34.706Z,80.04
2019-04-26T21:46:08.577Z,77.41
2019-04-26T21:48:41.355Z,77.96
2019-04-26T21:51:14.393Z,78.19
2019-04-26T21:53:45.147Z,78.20
2019-04-26T21:56:15.427Z,75.30
2019-04-26T21:58:46.313Z,77.53
2019-04-26T22:01:20.199Z,78.63
2019-04-26T22:03:57.041Z,77.45
2019-04-26T22:06:25.072Z,77.94
2019-04-26T22:09:04.464Z,77.13
2019-04-26T22:11:34.209Z,77.57
2019-04-26T22:14:06.893Z,78.29
2019-04-26T22:16:45.554Z,79.11
2019-04-26T22:19:23.225Z,78.14
2019-04-26T22:22:04.266Z,76.78
2019-04-26T22:24:38.502Z,77.76
2019-04-26T22:27:09.472Z,76.70
2019-04-26T22:29:40.242Z,75.41
2019-04-26T22:32:15.066Z,76.47
2019-04-26T22:34:46.186Z,75.10
2019-04-26T22:37:29.217Z,75.14
2019-04-26T22:39:49.584Z,76.20
2019-04-26T22:42:20.754Z,77.15
2019-04-26T22:44:53.973Z,80.66
2019-04-26T22:47:26.729Z,79.23
2019-04-26T22:49:57.519Z,78.48
2019-04-26T22:52:28.295Z,79.54
2019-04-26T22:54:59.471Z,79.00
2019-04-26T22:57:30.448Z,79.95
2019-04-26T23:00:01.422Z,79.12
2019-04-26T23:02:32.296Z,77.78
2019-04-26T23:05:06.012Z,75.35
2019-04-26T23:07:36.838Z,77.97
2019-04-26T23:10:09.727Z,79.11
2019-04-26T23:12:48.209Z,78.39
2019-04-26T23:15:30.110Z,76.45
2019-04-26T23:18:03.663Z,77.89
2019-04-26T23:20:49.099Z,77.20
2019-04-26T23:23:19.870Z,78.05
2019-04-26T23:25:50.642Z,77.56
2019-04-26T23:28:21.418Z,75.10
2019-04-26T23:30:53.102Z,74.78
2019-04-26T23:33:24.040Z,75.16
2019-04-26T23:35:54.743Z,76.26
2019-04-26T23:38:25.512Z,76.09
2019-04-26T23:40:57.188Z,77.97
2019-04-26T23:43:28.163Z,77.30
2019-04-26T23:45:58.944Z,77.96
2019-04-26T23:48:29.712Z,76.97
2019-04-26T23:51:04.991Z,77.38
2019-04-26T23:53:33.945Z,76.95
2019-04-26T23:56:05.847Z,75.54
2019-04-26T23:58:36.631Z,76.97
